Boroughbridge, United Kingdom
Current Conditions -  °F | °C
As of 9:50 PM on Sunday 21 Dec 2014 (Local Time) from EGXD Reporting Station
Overcast Overcast  
Wind Chill: 55°   Ceiling: 1300
Heat Index: 55°   Visibility: 6mi
Dew Point: 50°   Wind: 18mph
Humidity: 82%   Direction: 220°SW
Pressure: 29.83"   Gusts: 30mph
Location:  54.09°N, 1.4°W
Report Text: EGXD 212150Z AUTO 22016G26KT 9999 // OVC013/// 13/10 Q1010
Loading
Personal Weather Stations






























Interactive Weather Map New forecast layout! Learn more

10-Day Weather Forecast

Advertisements
Track Severe Weather on mobile